sensor_id;sensor_type;location;lat;lon;timestamp;pressure;altitude;pressure_sealevel;temperature;humidity
19510;BME280;9896;42.486;26.506;2023-02-16T00:01:52;101253.31;;;-0.21;87.91
19510;BME280;9896;42.486;26.506;2023-02-16T00:04:23;101255.28;;;-0.12;87.07
19510;BME280;9896;42.486;26.506;2023-02-16T00:06:50;101258.44;;;-0.19;87.97
19510;BME280;9896;42.486;26.506;2023-02-16T00:09:16;101257.59;;;-0.20;88.03
19510;BME280;9896;42.486;26.506;2023-02-16T00:11:42;101261.09;;;-0.19;87.98
19510;BME280;9896;42.486;26.506;2023-02-16T00:14:27;101258.56;;;-0.33;88.66
19510;BME280;9896;42.486;26.506;2023-02-16T00:16:54;101257.81;;;-0.23;88.34
19510;BME280;9896;42.486;26.506;2023-02-16T00:19:33;101257.06;;;-0.37;88.67
19510;BME280;9896;42.486;26.506;2023-02-16T00:22:00;101265.50;;;-0.32;89.18
19510;BME280;9896;42.486;26.506;2023-02-16T00:24:27;101264.34;;;-0.41;89.13
19510;BME280;9896;42.486;26.506;2023-02-16T00:26:53;101259.50;;;-0.34;89.11
19510;BME280;9896;42.486;26.506;2023-02-16T00:31:48;101258.75;;;-0.36;89.10
19510;BME280;9896;42.486;26.506;2023-02-16T00:37:04;101263.06;;;-0.35;89.42
19510;BME280;9896;42.486;26.506;2023-02-16T00:39:30;101265.31;;;-0.29;88.55
19510;BME280;9896;42.486;26.506;2023-02-16T00:42:02;101259.38;;;-0.20;88.69
19510;BME280;9896;42.486;26.506;2023-02-16T00:44:30;101257.72;;;-0.34;88.76
19510;BME280;9896;42.486;26.506;2023-02-16T00:47:00;101262.53;;;-0.40;89.48
19510;BME280;9896;42.486;26.506;2023-02-16T00:49:27;101257.94;;;-0.37;89.95
19510;BME280;9896;42.486;26.506;2023-02-16T00:51:52;101260.22;;;-0.45;89.54
19510;BME280;9896;42.486;26.506;2023-02-16T00:54:18;101260.72;;;-0.53;90.03
19510;BME280;9896;42.486;26.506;2023-02-16T00:56:44;101252.31;;;-0.45;89.75
19510;BME280;9896;42.486;26.506;2023-02-16T00:59:19;101249.25;;;-0.52;89.88
19510;BME280;9896;42.486;26.506;2023-02-16T01:01:45;101246.63;;;-0.39;88.85
19510;BME280;9896;42.486;26.506;2023-02-16T01:04:17;101248.94;;;-0.47;89.02
19510;BME280;9896;42.486;26.506;2023-02-16T01:06:43;101250.31;;;-0.41;89.12
19510;BME280;9896;42.486;26.506;2023-02-16T01:09:28;101249.78;;;-0.47;89.01
19510;BME280;9896;42.486;26.506;2023-02-16T01:12:15;101241.91;;;-0.86;90.68
19510;BME280;9896;42.486;26.506;2023-02-16T01:14:41;101243.53;;;-0.71;90.88
19510;BME280;9896;42.486;26.506;2023-02-16T01:17:09;101240.75;;;-0.82;91.27
19510;BME280;9896;42.486;26.506;2023-02-16T01:19:35;101242.16;;;-0.64;90.90
19510;BME280;9896;42.486;26.506;2023-02-16T01:22:00;101246.16;;;-0.71;90.32
19510;BME280;9896;42.486;26.506;2023-02-16T01:24:26;101238.59;;;-0.63;90.58
19510;BME280;9896;42.486;26.506;2023-02-16T01:26:52;101235.75;;;-0.60;89.88
19510;BME280;9896;42.486;26.506;2023-02-16T01:29:20;101240.91;;;-0.58;90.30
19510;BME280;9896;42.486;26.506;2023-02-16T01:31:46;101232.88;;;-0.57;89.70
19510;BME280;9896;42.486;26.506;2023-02-16T01:34:12;101227.97;;;-0.88;90.93
19510;BME280;9896;42.486;26.506;2023-02-16T01:36:42;101234.34;;;-0.65;90.66
19510;BME280;9896;42.486;26.506;2023-02-16T01:39:14;101224.25;;;-0.59;90.52
19510;BME280;9896;42.486;26.506;2023-02-16T01:44:28;101226.25;;;-0.62;90.82
19510;BME280;9896;42.486;26.506;2023-02-16T01:49:30;101227.78;;;-0.45;90.53
19510;BME280;9896;42.486;26.506;2023-02-16T01:52:04;101219.34;;;-0.38;91.04
19510;BME280;9896;42.486;26.506;2023-02-16T01:54:45;101220.84;;;-0.73;92.35
19510;BME280;9896;42.486;26.506;2023-02-16T01:57:44;101222.91;;;-0.52;91.45
19510;BME280;9896;42.486;26.506;2023-02-16T02:03:21;101220.25;;;-0.64;91.40
19510;BME280;9896;42.486;26.506;2023-02-16T02:06:08;101226.03;;;-0.72;92.11
19510;BME280;9896;42.486;26.506;2023-02-16T02:08:38;101216.34;;;-0.71;92.31
19510;BME280;9896;42.486;26.506;2023-02-16T02:11:17;101217.19;;;-0.71;92.40
19510;BME280;9896;42.486;26.506;2023-02-16T02:16:26;101218.06;;;-0.45;91.82
19510;BME280;9896;42.486;26.506;2023-02-16T02:18:52;101209.97;;;-0.42;91.42
19510;BME280;9896;42.486;26.506;2023-02-16T02:27:26;101216.16;;;-0.56;91.36
19510;BME280;9896;42.486;26.506;2023-02-16T02:36:27;101221.28;;;-0.79;92.01
19510;BME280;9896;42.486;26.506;2023-02-16T02:41:49;101221.22;;;-0.92;91.84
19510;BME280;9896;42.486;26.506;2023-02-16T02:44:33;101227.00;;;-1.00;92.05
19510;BME280;9896;42.486;26.506;2023-02-16T02:47:02;101227.91;;;-1.54;94.34
19510;BME280;9896;42.486;26.506;2023-02-16T02:49:27;101222.78;;;-1.29;93.75
19510;BME280;9896;42.486;26.506;2023-02-16T02:51:53;101237.22;;;-1.22;93.50
19510;BME280;9896;42.486;26.506;2023-02-16T02:54:25;101221.00;;;-1.28;93.91
19510;BME280;9896;42.486;26.506;2023-02-16T03:03:21;101243.09;;;-1.45;94.75
19510;BME280;9896;42.486;26.506;2023-02-16T03:08:23;101237.69;;;-1.70;95.47
19510;BME280;9896;42.486;26.506;2023-02-16T03:10:54;101221.56;;;-1.78;96.18
19510;BME280;9896;42.486;26.506;2023-02-16T03:13:54;101244.53;;;-1.54;95.56
19510;BME280;9896;42.486;26.506;2023-02-16T03:16:40;101241.53;;;-1.62;95.41
19510;BME280;9896;42.486;26.506;2023-02-16T03:19:09;101245.88;;;-1.89;97.06
19510;BME280;9896;42.486;26.506;2023-02-16T03:21:54;101244.66;;;-1.98;97.41
19510;BME280;9896;42.486;26.506;2023-02-16T03:24:39;101248.34;;;-2.00;98.72
19510;BME280;9896;42.486;26.506;2023-02-16T03:27:27;101249.16;;;-2.00;98.70
19510;BME280;9896;42.486;26.506;2023-02-16T03:30:14;101237.25;;;-2.05;99.04
19510;BME280;9896;42.486;26.506;2023-02-16T03:32:41;101237.31;;;-1.78;98.61
19510;BME280;9896;42.486;26.506;2023-02-16T03:35:08;101230.09;;;-1.75;97.75
19510;BME280;9896;42.486;26.506;2023-02-16T03:37:38;101235.19;;;-1.72;97.27
19510;BME280;9896;42.486;26.506;2023-02-16T03:40:06;101239.41;;;-1.98;98.46
19510;BME280;9896;42.486;26.506;2023-02-16T03:42:51;101228.22;;;-2.15;99.39
19510;BME280;9896;42.486;26.506;2023-02-16T03:45:20;101252.53;;;-2.12;99.02
19510;BME280;9896;42.486;26.506;2023-02-16T03:47:46;101218.09;;;-2.21;99.68
19510;BME280;9896;42.486;26.506;2023-02-16T03:50:12;101240.56;;;-1.88;98.24
19510;BME280;9896;42.486;26.506;2023-02-16T03:52:38;101226.34;;;-1.99;98.49
19510;BME280;9896;42.486;26.506;2023-02-16T03:55:03;101239.50;;;-1.85;98.80
19510;BME280;9896;42.486;26.506;2023-02-16T03:57:29;101239.06;;;-1.51;98.57
19510;BME280;9896;42.486;26.506;2023-02-16T03:59:56;101239.47;;;-1.71;97.42
19510;BME280;9896;42.486;26.506;2023-02-16T04:02:23;101244.47;;;-1.95;97.77
19510;BME280;9896;42.486;26.506;2023-02-16T04:04:49;101246.63;;;-2.15;99.38
19510;BME280;9896;42.486;26.506;2023-02-16T04:07:14;101241.94;;;-2.10;99.43
19510;BME280;9896;42.486;26.506;2023-02-16T04:09:40;101236.47;;;-2.07;100.00
19510;BME280;9896;42.486;26.506;2023-02-16T04:12:06;101241.47;;;-1.89;99.63
19510;BME280;9896;42.486;26.506;2023-02-16T04:14:50;101247.97;;;-1.80;98.77
19510;BME280;9896;42.486;26.506;2023-02-16T04:17:16;101219.03;;;-1.94;98.61
19510;BME280;9896;42.486;26.506;2023-02-16T04:19:41;101239.50;;;-1.99;99.69
19510;BME280;9896;42.486;26.506;2023-02-16T04:22:07;101244.75;;;-2.13;100.00
19510;BME280;9896;42.486;26.506;2023-02-16T04:24:32;101230.31;;;-1.92;100.00
19510;BME280;9896;42.486;26.506;2023-02-16T04:26:58;101220.34;;;-2.01;99.18
19510;BME280;9896;42.486;26.506;2023-02-16T04:29:23;101226.44;;;-1.87;99.25
19510;BME280;9896;42.486;26.506;2023-02-16T04:31:49;101243.63;;;-1.81;98.97
19510;BME280;9896;42.486;26.506;2023-02-16T04:34:15;101252.00;;;-1.89;99.16
19510;BME280;9896;42.486;26.506;2023-02-16T04:36:40;101247.00;;;-1.93;99.19
19510;BME280;9896;42.486;26.506;2023-02-16T04:39:06;101250.50;;;-1.93;99.51
19510;BME280;9896;42.486;26.506;2023-02-16T04:41:31;101248.13;;;-1.97;99.20
19510;BME280;9896;42.486;26.506;2023-02-16T04:43:57;101246.91;;;-2.06;99.39
19510;BME280;9896;42.486;26.506;2023-02-16T04:46:23;101249.75;;;-2.09;99.97
19510;BME280;9896;42.486;26.506;2023-02-16T04:48:48;101248.31;;;-2.14;100.00
19510;BME280;9896;42.486;26.506;2023-02-16T04:51:14;101245.50;;;-2.11;100.00
19510;BME280;9896;42.486;26.506;2023-02-16T04:53:39;101238.38;;;-1.95;99.91
19510;BME280;9896;42.486;26.506;2023-02-16T04:56:08;101250.59;;;-1.80;98.81
19510;BME280;9896;42.486;26.506;2023-02-16T04:58:35;101252.66;;;-1.85;99.38
19510;BME280;9896;42.486;26.506;2023-02-16T05:01:00;101247.00;;;-2.07;99.35
19510;BME280;9896;42.486;26.506;2023-02-16T05:03:26;101261.63;;;-2.03;99.15
19510;BME280;9896;42.486;26.506;2023-02-16T05:05:52;101253.19;;;-2.22;98.86
19510;BME280;9896;42.486;26.506;2023-02-16T05:08:18;101257.97;;;-2.29;99.68
19510;BME280;9896;42.486;26.506;2023-02-16T05:10:43;101257.28;;;-2.47;99.94
19510;BME280;9896;42.486;26.506;2023-02-16T05:13:11;101263.56;;;-2.49;100.00
19510;BME280;9896;42.486;26.506;2023-02-16T05:15:55;101257.69;;;-2.24;100.00
19510;BME280;9896;42.486;26.506;2023-02-16T05:18:21;101264.63;;;-2.23;100.00
19510;BME280;9896;42.486;26.506;2023-02-16T05:20:46;101263.88;;;-2.25;100.00
19510;BME280;9896;42.486;26.506;2023-02-16T05:23:31;101269.41;;;-2.16;100.00
19510;BME280;9896;42.486;26.506;2023-02-16T05:25:56;101269.72;;;-2.20;100.00
19510;BME280;9896;42.486;26.506;2023-02-16T05:28:22;101277.41;;;-2.17;100.00
19510;BME280;9896;42.486;26.506;2023-02-16T05:30:47;101273.94;;;-2.04;99.76
19510;BME280;9896;42.486;26.506;2023-02-16T05:33:13;101276.00;;;-1.95;98.52
19510;BME280;9896;42.486;26.506;2023-02-16T05:35:39;101275.91;;;-2.07;99.05
19510;BME280;9896;42.486;26.506;2023-02-16T05:38:04;101287.38;;;-1.94;98.62
19510;BME280;9896;42.486;26.506;2023-02-16T05:40:30;101288.41;;;-1.97;98.53
19510;BME280;9896;42.486;26.506;2023-02-16T05:42:55;101299.28;;;-2.03;99.28
19510;BME280;9896;42.486;26.506;2023-02-16T05:45:21;101289.06;;;-1.93;98.78
19510;BME280;9896;42.486;26.506;2023-02-16T05:47:46;101291.63;;;-1.63;98.28
19510;BME280;9896;42.486;26.506;2023-02-16T05:50:12;101297.25;;;-1.55;97.15
19510;BME280;9896;42.486;26.506;2023-02-16T05:52:37;101276.50;;;-1.60;96.31
19510;BME280;9896;42.486;26.506;2023-02-16T05:55:03;101293.19;;;-1.61;95.39
19510;BME280;9896;42.486;26.506;2023-02-16T05:57:29;101302.88;;;-1.47;94.78
19510;BME280;9896;42.486;26.506;2023-02-16T05:59:54;101304.38;;;-1.85;96.55
19510;BME280;9896;42.486;26.506;2023-02-16T06:02:20;101303.59;;;-2.02;97.57
19510;BME280;9896;42.486;26.506;2023-02-16T06:04:45;101311.53;;;-1.88;96.34
19510;BME280;9896;42.486;26.506;2023-02-16T06:07:11;101321.25;;;-1.90;94.29
19510;BME280;9896;42.486;26.506;2023-02-16T06:09:37;101313.38;;;-1.90;94.55
19510;BME280;9896;42.486;26.506;2023-02-16T06:12:02;101313.72;;;-1.96;94.79
19510;BME280;9896;42.486;26.506;2023-02-16T06:14:28;101315.03;;;-2.03;94.58
19510;BME280;9896;42.486;26.506;2023-02-16T06:16:53;101325.66;;;-1.90;93.77
19510;BME280;9896;42.486;26.506;2023-02-16T06:19:20;101323.81;;;-1.74;93.69
19510;BME280;9896;42.486;26.506;2023-02-16T06:21:46;101319.75;;;-1.37;91.35
19510;BME280;9896;42.486;26.506;2023-02-16T06:24:13;101324.06;;;-1.22;90.05
19510;BME280;9896;42.486;26.506;2023-02-16T06:26:39;101327.44;;;-1.20;90.29
19510;BME280;9896;42.486;26.506;2023-02-16T06:29:05;101321.13;;;-1.17;90.47
19510;BME280;9896;42.486;26.506;2023-02-16T06:31:30;101325.59;;;-1.60;91.75
19510;BME280;9896;42.486;26.506;2023-02-16T06:33:56;101325.88;;;-1.65;92.93
19510;BME280;9896;42.486;26.506;2023-02-16T06:36:23;101328.88;;;-1.43;92.84
19510;BME280;9896;42.486;26.506;2023-02-16T06:38:48;101322.81;;;-1.02;91.04
19510;BME280;9896;42.486;26.506;2023-02-16T06:41:14;101326.59;;;-1.06;90.64
19510;BME280;9896;42.486;26.506;2023-02-16T06:43:59;101327.44;;;-0.79;90.15
19510;BME280;9896;42.486;26.506;2023-02-16T06:46:26;101324.75;;;-0.65;90.22
19510;BME280;9896;42.486;26.506;2023-02-16T06:48:51;101336.06;;;-1.04;90.71
19510;BME280;9896;42.486;26.506;2023-02-16T06:51:17;101328.13;;;-0.89;90.38
19510;BME280;9896;42.486;26.506;2023-02-16T06:53:43;101339.91;;;-0.68;89.81
19510;BME280;9896;42.486;26.506;2023-02-16T06:56:09;101337.78;;;-0.49;89.10
19510;BME280;9896;42.486;26.506;2023-02-16T06:58:34;101346.19;;;-0.17;88.20
19510;BME280;9896;42.486;26.506;2023-02-16T07:01:00;101341.97;;;-0.07;87.51
19510;BME280;9896;42.486;26.506;2023-02-16T07:03:25;101347.59;;;-0.38;88.17
19510;BME280;9896;42.486;26.506;2023-02-16T07:05:51;101333.63;;;-0.26;87.83
19510;BME280;9896;42.486;26.506;2023-02-16T07:08:17;101346.44;;;0.18;87.30
19510;BME280;9896;42.486;26.506;2023-02-16T07:10:45;101345.59;;;0.30;87.32
19510;BME280;9896;42.486;26.506;2023-02-16T07:13:11;101345.78;;;0.77;85.05
19510;BME280;9896;42.486;26.506;2023-02-16T07:15:36;101347.69;;;0.50;86.47
19510;BME280;9896;42.486;26.506;2023-02-16T07:18:02;101344.19;;;0.75;85.18
19510;BME280;9896;42.486;26.506;2023-02-16T07:20:28;101329.19;;;1.12;83.34
19510;BME280;9896;42.486;26.506;2023-02-16T07:22:54;101344.03;;;1.02;84.34
19510;BME280;9896;42.486;26.506;2023-02-16T07:25:19;101350.94;;;1.15;84.31
19510;BME280;9896;42.486;26.506;2023-02-16T07:27:45;101335.16;;;2.20;80.40
19510;BME280;9896;42.486;26.506;2023-02-16T07:30:11;101327.78;;;2.12;80.22
19510;BME280;9896;42.486;26.506;2023-02-16T07:32:37;101333.75;;;1.92;80.28
19510;BME280;9896;42.486;26.506;2023-02-16T07:35:03;101339.72;;;2.18;79.87
19510;BME280;9896;42.486;26.506;2023-02-16T07:37:29;101338.13;;;1.69;81.90
19510;BME280;9896;42.486;26.506;2023-02-16T07:39:56;101342.84;;;2.12;80.66
19510;BME280;9896;42.486;26.506;2023-02-16T07:42:21;101335.63;;;2.14;80.77
19510;BME280;9896;42.486;26.506;2023-02-16T07:44:47;101326.72;;;2.81;78.61
19510;BME280;9896;42.486;26.506;2023-02-16T07:47:13;101327.81;;;2.90;78.18
19510;BME280;9896;42.486;26.506;2023-02-16T07:49:39;101329.97;;;2.41;80.38
19510;BME280;9896;42.486;26.506;2023-02-16T07:52:05;101336.97;;;2.42;80.85
19510;BME280;9896;42.486;26.506;2023-02-16T07:54:32;101336.63;;;2.35;81.20
19510;BME280;9896;42.486;26.506;2023-02-16T07:56:57;101320.09;;;2.98;79.20
19510;BME280;9896;42.486;26.506;2023-02-16T07:59:23;101328.53;;;3.03;78.72
19510;BME280;9896;42.486;26.506;2023-02-16T08:01:48;101331.16;;;3.25;78.12
19510;BME280;9896;42.486;26.506;2023-02-16T08:04:14;101324.84;;;3.90;76.58
19510;BME280;9896;42.486;26.506;2023-02-16T08:06:39;101316.53;;;3.63;77.20
19510;BME280;9896;42.486;26.506;2023-02-16T08:09:05;101323.22;;;3.78;76.95
19510;BME280;9896;42.486;26.506;2023-02-16T08:11:31;101318.78;;;3.99;76.81
19510;BME280;9896;42.486;26.506;2023-02-16T08:13:58;101315.47;;;3.86;76.89
19510;BME280;9896;42.486;26.506;2023-02-16T08:16:26;101317.97;;;3.35;79.24
19510;BME280;9896;42.486;26.506;2023-02-16T08:18:54;101312.38;;;4.32;76.16
19510;BME280;9896;42.486;26.506;2023-02-16T08:21:22;101306.38;;;4.30;77.02
19510;BME280;9896;42.486;26.506;2023-02-16T08:23:57;101308.47;;;4.27;75.88
19510;BME280;9896;42.486;26.506;2023-02-16T08:26:25;101310.56;;;4.02;77.59
19510;BME280;9896;42.486;26.506;2023-02-16T08:28:52;101313.47;;;3.99;78.89
19510;BME280;9896;42.486;26.506;2023-02-16T08:31:19;101311.44;;;4.73;76.82
19510;BME280;9896;42.486;26.506;2023-02-16T08:33:47;101302.09;;;5.47;73.50
19510;BME280;9896;42.486;26.506;2023-02-16T08:36:24;101301.81;;;5.41;73.38
19510;BME280;9896;42.486;26.506;2023-02-16T08:38:52;101294.56;;;5.62;72.71
19510;BME280;9896;42.486;26.506;2023-02-16T08:41:23;101301.84;;;5.89;71.95
19510;BME280;9896;42.486;26.506;2023-02-16T08:43:49;101291.06;;;5.90;71.33
19510;BME280;9896;42.486;26.506;2023-02-16T08:46:17;101294.00;;;5.97;71.36
19510;BME280;9896;42.486;26.506;2023-02-16T08:48:42;101300.44;;;5.56;72.84
19510;BME280;9896;42.486;26.506;2023-02-16T08:51:18;101299.94;;;6.28;69.97
19510;BME280;9896;42.486;26.506;2023-02-16T08:53:45;101286.06;;;6.34;70.08
19510;BME280;9896;42.486;26.506;2023-02-16T08:56:11;101297.13;;;6.39;70.44
19510;BME280;9896;42.486;26.506;2023-02-16T08:58:37;101301.13;;;6.52;69.41
19510;BME280;9896;42.486;26.506;2023-02-16T09:01:06;101297.00;;;6.95;68.57
19510;BME280;9896;42.486;26.506;2023-02-16T09:03:33;101299.31;;;7.08;68.20
19510;BME280;9896;42.486;26.506;2023-02-16T09:06:01;101300.47;;;6.41;69.95
19510;BME280;9896;42.486;26.506;2023-02-16T09:08:27;101302.81;;;6.81;69.02
19510;BME280;9896;42.486;26.506;2023-02-16T09:10:53;101294.91;;;6.25;71.06
19510;BME280;9896;42.486;26.506;2023-02-16T09:13:19;101295.53;;;6.56;70.04
19510;BME280;9896;42.486;26.506;2023-02-16T09:15:46;101294.25;;;6.60;69.98
19510;BME280;9896;42.486;26.506;2023-02-16T09:18:12;101295.19;;;6.68;69.73
19510;BME280;9896;42.486;26.506;2023-02-16T09:20:39;101301.38;;;7.14;68.20
19510;BME280;9896;42.486;26.506;2023-02-16T09:23:06;101309.28;;;7.06;69.72
19510;BME280;9896;42.486;26.506;2023-02-16T09:25:37;101297.84;;;7.40;68.76
19510;BME280;9896;42.486;26.506;2023-02-16T09:28:04;101294.19;;;7.41;68.15
19510;BME280;9896;42.486;26.506;2023-02-16T09:30:30;101290.69;;;7.14;68.72
19510;BME280;9896;42.486;26.506;2023-02-16T09:32:57;101290.19;;;7.28;69.12
19510;BME280;9896;42.486;26.506;2023-02-16T09:35:23;101281.44;;;7.53;68.81
19510;BME280;9896;42.486;26.506;2023-02-16T09:37:50;101294.34;;;7.58;68.51
19510;BME280;9896;42.486;26.506;2023-02-16T09:40:16;101289.84;;;8.02;67.90
19510;BME280;9896;42.486;26.506;2023-02-16T09:45:42;101277.69;;;7.64;68.38
19510;BME280;9896;42.486;26.506;2023-02-16T09:48:23;101284.78;;;7.90;67.03
19510;BME280;9896;42.486;26.506;2023-02-16T09:50:55;101282.78;;;7.92;67.19
19510;BME280;9896;42.486;26.506;2023-02-16T09:53:38;101290.78;;;7.75;68.51
19510;BME280;9896;42.486;26.506;2023-02-16T09:56:25;101284.59;;;7.74;68.08
19510;BME280;9896;42.486;26.506;2023-02-16T09:59:08;101279.00;;;8.03;66.88
19510;BME280;9896;42.486;26.506;2023-02-16T10:04:27;101271.69;;;8.65;64.54
19510;BME280;9896;42.486;26.506;2023-02-16T10:07:40;101263.81;;;8.97;63.65
19510;BME280;9896;42.486;26.506;2023-02-16T10:10:15;101255.53;;;8.74;63.89
19510;BME280;9896;42.486;26.506;2023-02-16T10:12:47;101262.75;;;8.82;63.07
19510;BME280;9896;42.486;26.506;2023-02-16T10:15:17;101252.59;;;8.94;63.37
19510;BME280;9896;42.486;26.506;2023-02-16T10:17:52;101248.44;;;8.99;62.85
19510;BME280;9896;42.486;26.506;2023-02-16T10:20:27;101246.94;;;9.05;62.64
19510;BME280;9896;42.486;26.506;2023-02-16T10:23:03;101239.84;;;8.79;62.28
19510;BME280;9896;42.486;26.506;2023-02-16T10:28:47;101232.06;;;9.02;61.84
19510;BME280;9896;42.486;26.506;2023-02-16T10:41:33;101230.13;;;9.53;57.88
19510;BME280;9896;42.486;26.506;2023-02-16T10:44:17;101231.78;;;9.62;59.35
19510;BME280;9896;42.486;26.506;2023-02-16T10:46:46;101213.03;;;9.86;58.61
19510;BME280;9896;42.486;26.506;2023-02-16T10:49:16;101215.47;;;10.20;57.70
19510;BME280;9896;42.486;26.506;2023-02-16T10:51:45;101209.28;;;10.11;57.81
19510;BME280;9896;42.486;26.506;2023-02-16T10:54:15;101214.81;;;10.26;57.70
19510;BME280;9896;42.486;26.506;2023-02-16T10:56:44;101206.09;;;10.24;57.45
19510;BME280;9896;42.486;26.506;2023-02-16T10:59:29;101202.56;;;10.23;56.70
19510;BME280;9896;42.486;26.506;2023-02-16T11:01:57;101195.31;;;10.40;56.42
19510;BME280;9896;42.486;26.506;2023-02-16T11:04:39;101188.28;;;10.39;57.14
19510;BME280;9896;42.486;26.506;2023-02-16T11:09:41;101180.34;;;10.54;56.38
19510;BME280;9896;42.486;26.506;2023-02-16T11:12:31;101177.00;;;10.83;56.16
19510;BME280;9896;42.486;26.506;2023-02-16T11:15:05;101174.81;;;10.86;55.18
19510;BME280;9896;42.486;26.506;2023-02-16T11:20:34;101175.50;;;10.49;50.93
19510;BME280;9896;42.486;26.506;2023-02-16T11:23:22;101165.22;;;10.92;51.26
19510;BME280;9896;42.486;26.506;2023-02-16T11:26:06;101167.06;;;10.91;50.30
19510;BME280;9896;42.486;26.506;2023-02-16T11:28:40;101155.47;;;11.13;50.64
19510;BME280;9896;42.486;26.506;2023-02-16T11:34:03;101162.22;;;10.87;49.97
19510;BME280;9896;42.486;26.506;2023-02-16T11:36:38;101153.59;;;10.68;49.86
19510;BME280;9896;42.486;26.506;2023-02-16T11:39:18;101154.75;;;10.97;48.92
19510;BME280;9896;42.486;26.506;2023-02-16T11:41:48;101162.75;;;11.05;47.42
19510;BME280;9896;42.486;26.506;2023-02-16T11:44:33;101151.66;;;10.85;47.38
19510;BME280;9896;42.486;26.506;2023-02-16T11:47:06;101153.69;;;11.06;46.76
19510;BME280;9896;42.486;26.506;2023-02-16T11:49:39;101137.84;;;11.19;46.85
19510;BME280;9896;42.486;26.506;2023-02-16T11:54:58;101130.84;;;11.33;45.00
19510;BME280;9896;42.486;26.506;2023-02-16T11:57:27;101128.34;;;11.46;44.42
19510;BME280;9896;42.486;26.506;2023-02-16T11:59:55;101126.72;;;11.59;44.21
19510;BME280;9896;42.486;26.506;2023-02-16T12:10:52;101114.84;;;11.39;43.77
19510;BME280;9896;42.486;26.506;2023-02-16T12:19:16;101104.94;;;11.54;41.39
19510;BME280;9896;42.486;26.506;2023-02-16T12:21:51;101093.88;;;11.87;41.39
19510;BME280;9896;42.486;26.506;2023-02-16T12:27:46;101093.56;;;11.67;41.97
19510;BME280;9896;42.486;26.506;2023-02-16T12:35:37;101074.31;;;12.22;41.12
19510;BME280;9896;42.486;26.506;2023-02-16T12:38:27;101068.50;;;11.89;40.67
19510;BME280;9896;42.486;26.506;2023-02-16T12:41:12;101062.09;;;11.76;41.20
19510;BME280;9896;42.486;26.506;2023-02-16T12:43:53;101061.81;;;12.36;39.34
19510;BME280;9896;42.486;26.506;2023-02-16T12:46:26;101056.88;;;12.18;39.72
19510;BME280;9896;42.486;26.506;2023-02-16T12:49:24;101063.94;;;12.40;39.72
19510;BME280;9896;42.486;26.506;2023-02-16T12:51:55;101068.84;;;12.01;38.38
19510;BME280;9896;42.486;26.506;2023-02-16T12:54:53;101056.16;;;12.09;38.62
19510;BME280;9896;42.486;26.506;2023-02-16T12:57:23;101058.44;;;12.13;38.82
19510;BME280;9896;42.486;26.506;2023-02-16T12:59:54;101050.72;;;12.24;38.48
19510;BME280;9896;42.486;26.506;2023-02-16T13:02:36;101053.97;;;12.20;38.48
19510;BME280;9896;42.486;26.506;2023-02-16T13:05:12;101042.94;;;12.15;38.31
19510;BME280;9896;42.486;26.506;2023-02-16T13:07:44;101047.84;;;12.26;37.97
19510;BME280;9896;42.486;26.506;2023-02-16T13:12:54;101033.22;;;11.78;39.38
19510;BME280;9896;42.486;26.506;2023-02-16T13:15:33;101024.00;;;11.87;38.98
19510;BME280;9896;42.486;26.506;2023-02-16T13:18:04;101019.63;;;11.71;38.63
19510;BME280;9896;42.486;26.506;2023-02-16T13:20:32;101030.78;;;12.19;37.68
19510;BME280;9896;42.486;26.506;2023-02-16T13:28:48;101015.94;;;12.23;35.66
19510;BME280;9896;42.486;26.506;2023-02-16T13:37:40;101012.06;;;11.89;36.75
19510;BME280;9896;42.486;26.506;2023-02-16T13:40:29;101018.72;;;11.93;36.52
19510;BME280;9896;42.486;26.506;2023-02-16T13:45:57;101011.25;;;12.67;36.07
19510;BME280;9896;42.486;26.506;2023-02-16T13:48:30;101011.69;;;12.28;37.43
19510;BME280;9896;42.486;26.506;2023-02-16T13:51:08;101022.69;;;12.33;38.08
19510;BME280;9896;42.486;26.506;2023-02-16T13:53:38;101017.00;;;12.07;38.34
19510;BME280;9896;42.486;26.506;2023-02-16T13:58:54;101011.00;;;11.90;38.78
19510;BME280;9896;42.486;26.506;2023-02-16T14:04:01;101007.91;;;12.86;36.78
19510;BME280;9896;42.486;26.506;2023-02-16T14:27:53;100995.81;;;11.97;38.38
19510;BME280;9896;42.486;26.506;2023-02-16T14:35:37;100991.13;;;12.21;38.53
19510;BME280;9896;42.486;26.506;2023-02-16T14:38:27;101000.97;;;12.14;38.95
19510;BME280;9896;42.486;26.506;2023-02-16T14:40:57;100982.78;;;12.16;38.85
19510;BME280;9896;42.486;26.506;2023-02-16T14:49:20;100981.59;;;12.39;38.64
19510;BME280;9896;42.486;26.506;2023-02-16T14:57:01;100979.25;;;11.64;40.56
19510;BME280;9896;42.486;26.506;2023-02-16T14:59:34;100984.44;;;11.66;40.56
19510;BME280;9896;42.486;26.506;2023-02-16T15:02:38;100971.47;;;11.70;41.08
19510;BME280;9896;42.486;26.506;2023-02-16T15:05:28;100974.72;;;11.65;40.95
19510;BME280;9896;42.486;26.506;2023-02-16T15:08:08;100984.06;;;11.69;41.05
19510;BME280;9896;42.486;26.506;2023-02-16T15:10:37;100979.94;;;12.02;40.99
19510;BME280;9896;42.486;26.506;2023-02-16T15:13:03;100981.88;;;12.08;40.51
19510;BME280;9896;42.486;26.506;2023-02-16T15:15:46;100982.03;;;12.22;40.15
19510;BME280;9896;42.486;26.506;2023-02-16T15:18:18;100974.66;;;12.09;41.01
19510;BME280;9896;42.486;26.506;2023-02-16T15:20:47;100981.88;;;12.08;40.90
19510;BME280;9896;42.486;26.506;2023-02-16T15:26:04;100982.72;;;12.09;41.11
19510;BME280;9896;42.486;26.506;2023-02-16T15:28:35;100970.06;;;11.88;41.37
19510;BME280;9896;42.486;26.506;2023-02-16T15:31:13;100974.00;;;11.56;42.05
19510;BME280;9896;42.486;26.506;2023-02-16T15:33:52;100980.94;;;11.36;42.84
19510;BME280;9896;42.486;26.506;2023-02-16T15:36:21;100980.88;;;10.92;44.03
19510;BME280;9896;42.486;26.506;2023-02-16T15:41:25;100976.19;;;10.34;45.53
19510;BME280;9896;42.486;26.506;2023-02-16T15:43:51;100975.56;;;10.24;45.99
19510;BME280;9896;42.486;26.506;2023-02-16T15:48:52;100966.25;;;10.12;45.90
19510;BME280;9896;42.486;26.506;2023-02-16T15:51:29;100976.09;;;9.89;47.02
19510;BME280;9896;42.486;26.506;2023-02-16T15:53:59;100967.81;;;10.06;46.61